createdAt,value
2022-11-17T00:01:06.386Z,44.18
2022-11-17T00:03:33.991Z,44.40
2022-11-17T00:06:04.022Z,44.39
2022-11-17T00:08:31.302Z,44.90
2022-11-17T00:11:01.475Z,45.09
2022-11-17T00:13:29.327Z,44.77
2022-11-17T00:15:56.483Z,44.90
2022-11-17T00:18:23.745Z,45.27
2022-11-17T00:20:51.000Z,45.94
2022-11-17T00:23:18.206Z,45.53
2022-11-17T00:25:45.543Z,45.79
2022-11-17T00:28:14.223Z,46.26
2022-11-17T00:30:43.806Z,45.66
2022-11-17T00:33:11.324Z,45.72
2022-11-17T00:35:38.664Z,44.93
2022-11-17T00:38:05.829Z,45.40
2022-11-17T00:40:33.204Z,45.10
2022-11-17T00:43:00.328Z,44.48
2022-11-17T00:45:28.907Z,43.86
2022-11-17T00:47:56.004Z,43.70
2022-11-17T00:50:23.127Z,43.91
2022-11-17T00:52:50.383Z,44.36
2022-11-17T00:55:17.564Z,43.93
2022-11-17T00:57:44.702Z,44.03
2022-11-17T01:00:12.804Z,43.90
2022-11-17T01:02:41.488Z,43.36
2022-11-17T01:05:09.325Z,44.30
2022-11-17T01:07:36.562Z,44.43
2022-11-17T01:10:04.284Z,43.91
2022-11-17T01:12:31.523Z,44.78
2022-11-17T01:14:58.724Z,45.03
2022-11-17T01:17:26.003Z,43.83
2022-11-17T01:19:54.830Z,43.81
2022-11-17T01:22:22.070Z,43.96
2022-11-17T01:24:49.203Z,44.69
2022-11-17T01:27:16.406Z,44.76
2022-11-17T01:29:43.483Z,45.25
2022-11-17T01:32:10.643Z,45.34
2022-11-17T01:34:37.757Z,45.84
2022-11-17T01:37:06.403Z,46.58
2022-11-17T01:39:33.583Z,46.79
2022-11-17T01:42:05.048Z,46.60
2022-11-17T01:45:04.804Z,46.69
2022-11-17T01:47:47.305Z,46.25
2022-11-17T01:50:26.924Z,46.04
2022-11-17T01:52:58.803Z,46.82
2022-11-17T01:55:35.788Z,46.83
2022-11-17T01:58:08.985Z,46.95
2022-11-17T02:00:36.383Z,46.96
2022-11-17T02:03:05.165Z,46.88
2022-11-17T02:05:43.465Z,47.24
2022-11-17T02:08:13.427Z,46.86
2022-11-17T02:10:43.792Z,46.13
2022-11-17T02:13:14.862Z,47.19
2022-11-17T02:15:42.001Z,47.19
2022-11-17T02:18:09.795Z,46.22
2022-11-17T02:20:51.642Z,46.86
2022-11-17T02:23:52.786Z,46.72
2022-11-17T02:26:54.644Z,46.29
2022-11-17T02:29:33.783Z,46.09
2022-11-17T02:32:07.921Z,45.54
2022-11-17T02:34:46.224Z,45.99
2022-11-17T02:37:26.500Z,46.05
2022-11-17T02:40:03.842Z,46.86
2022-11-17T02:42:39.282Z,46.86
2022-11-17T02:45:16.374Z,46.58
2022-11-17T02:47:50.861Z,47.16
2022-11-17T02:50:27.910Z,47.83
2022-11-17T02:52:55.921Z,47.29
2022-11-17T02:55:23.063Z,46.83
2022-11-17T02:57:50.161Z,47.15
2022-11-17T03:00:20.681Z,47.62
2022-11-17T03:03:09.081Z,47.22
2022-11-17T03:05:49.761Z,47.07
2022-11-17T03:08:32.761Z,47.22
2022-11-17T03:11:03.792Z,47.47
2022-11-17T03:13:46.460Z,46.48
2022-11-17T03:16:29.737Z,46.88
2022-11-17T03:19:10.480Z,46.55
2022-11-17T03:21:45.022Z,45.69
2022-11-17T03:24:21.401Z,46.49
2022-11-17T03:26:53.820Z,47.09
2022-11-17T03:29:26.462Z,47.39
2022-11-17T03:32:00.821Z,46.05
2022-11-17T03:34:36.041Z,46.46
2022-11-17T03:37:09.012Z,47.00
2022-11-17T03:39:39.181Z,47.13
2022-11-17T03:42:14.380Z,46.80
2022-11-17T03:44:47.621Z,46.58
2022-11-17T03:47:21.474Z,47.27
2022-11-17T03:49:57.100Z,56.67
2022-11-17T03:52:25.359Z,54.05
2022-11-17T03:54:53.620Z,53.75
2022-11-17T03:57:30.301Z,51.74
2022-11-17T04:00:05.320Z,49.33
2022-11-17T04:02:34.241Z,49.28
2022-11-17T04:05:01.459Z,49.83
2022-11-17T04:07:28.637Z,49.91
2022-11-17T04:09:55.921Z,49.18
2022-11-17T04:12:23.123Z,47.98
2022-11-17T04:14:50.220Z,48.13
2022-11-17T04:17:17.560Z,47.02
2022-11-17T04:19:46.141Z,46.51
2022-11-17T04:22:13.220Z,46.68
2022-11-17T04:24:40.384Z,47.06
2022-11-17T04:27:08.301Z,45.80
2022-11-17T04:29:35.354Z,45.09
2022-11-17T04:32:02.619Z,45.82
2022-11-17T04:34:29.744Z,46.00
2022-11-17T04:36:58.222Z,45.18
2022-11-17T04:39:25.342Z,44.55
2022-11-17T04:41:52.447Z,44.65
2022-11-17T04:44:21.359Z,44.61
2022-11-17T04:46:49.101Z,43.97
2022-11-17T04:49:18.281Z,44.28
2022-11-17T04:51:46.239Z,43.42
2022-11-17T04:54:18.081Z,44.18
2022-11-17T04:56:46.001Z,44.06
2022-11-17T04:59:13.236Z,44.44
2022-11-17T05:01:41.011Z,43.75
2022-11-17T05:04:10.300Z,44.09
2022-11-17T05:06:39.861Z,43.77
2022-11-17T05:09:09.841Z,44.06
2022-11-17T05:11:38.962Z,43.72
2022-11-17T05:14:06.402Z,43.48
2022-11-17T05:16:33.580Z,43.67
2022-11-17T05:19:00.780Z,43.97
2022-11-17T05:21:28.001Z,44.01
2022-11-17T05:23:55.206Z,43.65
2022-11-17T05:26:24.421Z,44.27
2022-11-17T05:28:54.962Z,43.57
2022-11-17T05:31:23.401Z,43.78
2022-11-17T05:33:50.982Z,43.46
2022-11-17T05:36:18.922Z,43.22
2022-11-17T05:38:47.821Z,43.53
2022-11-17T05:41:16.161Z,43.70
2022-11-17T05:43:43.841Z,43.81
2022-11-17T05:46:12.641Z,42.86
2022-11-17T05:48:40.382Z,43.54
2022-11-17T05:51:07.862Z,43.07
2022-11-17T05:53:35.316Z,43.32
2022-11-17T05:56:15.821Z,43.05
2022-11-17T05:58:47.904Z,43.36
2022-11-17T06:01:20.803Z,43.36
2022-11-17T06:03:54.079Z,42.41
2022-11-17T06:06:22.073Z,43.37
2022-11-17T06:08:50.602Z,42.90
2022-11-17T06:11:17.761Z,42.83
2022-11-17T06:13:45.002Z,42.45
2022-11-17T06:16:20.001Z,43.80
2022-11-17T06:18:52.722Z,44.44
2022-11-17T06:21:20.002Z,43.79
2022-11-17T06:23:50.061Z,44.40
2022-11-17T06:26:17.624Z,44.43
2022-11-17T06:28:49.264Z,44.41
2022-11-17T06:31:19.205Z,44.45
2022-11-17T06:33:47.614Z,44.39
2022-11-17T06:36:15.004Z,44.47
2022-11-17T06:38:42.125Z,44.10
2022-11-17T06:41:12.075Z,44.10
2022-11-17T06:43:39.464Z,43.07
2022-11-17T06:46:06.622Z,43.76
2022-11-17T06:48:35.517Z,43.79
2022-11-17T06:51:04.730Z,44.00
2022-11-17T06:53:33.365Z,43.42
2022-11-17T06:56:00.948Z,44.19
2022-11-17T06:58:28.643Z,43.20
2022-11-17T07:01:02.512Z,43.77
2022-11-17T07:03:29.683Z,43.77
2022-11-17T07:06:01.026Z,44.13
2022-11-17T07:08:28.884Z,43.70
2022-11-17T07:11:01.065Z,44.19
2022-11-17T07:13:28.325Z,44.01
2022-11-17T07:15:55.445Z,44.10
2022-11-17T07:18:22.726Z,44.15
2022-11-17T07:20:49.824Z,44.44
2022-11-17T07:23:18.564Z,43.91
2022-11-17T07:25:45.744Z,44.26
2022-11-17T07:28:12.883Z,44.33
2022-11-17T07:30:40.063Z,44.66
2022-11-17T07:33:07.283Z,44.17
2022-11-17T07:35:36.045Z,44.71
2022-11-17T07:38:03.305Z,44.92
2022-11-17T07:40:32.004Z,44.85
2022-11-17T07:42:59.184Z,44.74
2022-11-17T07:45:31.402Z,45.08
2022-11-17T07:48:01.085Z,45.02
2022-11-17T07:50:29.988Z,44.75
2022-11-17T07:52:58.103Z,45.07
2022-11-17T07:55:26.884Z,44.55
2022-11-17T07:58:00.404Z,45.12
2022-11-17T08:00:30.535Z,44.59
2022-11-17T08:03:01.405Z,44.86
2022-11-17T08:05:28.587Z,44.81
2022-11-17T08:07:57.026Z,45.19
2022-11-17T08:10:24.670Z,44.93
2022-11-17T08:12:52.084Z,45.04
2022-11-17T08:15:20.810Z,45.02
2022-11-17T08:17:52.897Z,45.33
2022-11-17T08:20:20.163Z,44.97
2022-11-17T08:22:47.486Z,45.09
2022-11-17T08:25:14.787Z,45.20
2022-11-17T08:27:42.107Z,45.09
2022-11-17T08:30:10.248Z,45.57
2022-11-17T08:32:38.935Z,45.14
2022-11-17T08:35:07.010Z,45.19
2022-11-17T08:37:34.230Z,44.96
2022-11-17T08:40:01.485Z,44.77
2022-11-17T08:42:28.688Z,44.68
2022-11-17T08:44:55.924Z,44.66
2022-11-17T08:47:23.125Z,44.62
2022-11-17T08:49:51.858Z,44.50
2022-11-17T08:52:19.286Z,44.28
2022-11-17T08:54:46.445Z,44.42
2022-11-17T08:57:13.679Z,45.12
2022-11-17T08:59:40.965Z,45.13
2022-11-17T09:02:08.205Z,44.67
2022-11-17T09:04:35.401Z,45.13
2022-11-17T09:07:04.198Z,44.61
2022-11-17T09:09:32.217Z,45.20
2022-11-17T09:12:00.345Z,44.69
2022-11-17T09:14:27.526Z,44.41
2022-11-17T09:16:54.704Z,44.24
2022-11-17T09:19:21.885Z,44.06
2022-11-17T09:21:49.128Z,44.36
2022-11-17T09:24:18.005Z,44.24
2022-11-17T09:26:45.246Z,44.49
2022-11-17T09:29:12.424Z,44.16
2022-11-17T09:31:39.740Z,44.31
2022-11-17T09:34:06.998Z,43.53
2022-11-17T09:36:35.402Z,43.58
2022-11-17T09:39:02.744Z,44.01
2022-11-17T09:41:40.164Z,44.10
2022-11-17T09:44:23.224Z,44.18
2022-11-17T09:47:01.744Z,43.89
2022-11-17T09:49:40.105Z,44.29
2022-11-17T09:52:18.366Z,44.17
2022-11-17T09:54:53.584Z,43.65
2022-11-17T09:57:31.469Z,42.92
2022-11-17T10:00:12.886Z,43.20
2022-11-17T10:02:40.885Z,42.12
2022-11-17T10:05:14.044Z,42.27
2022-11-17T10:07:49.255Z,42.64
2022-11-17T10:10:23.216Z,42.92
2022-11-17T10:12:58.330Z,42.68
2022-11-17T10:15:30.966Z,43.16
2022-11-17T10:17:58.182Z,42.73
2022-11-17T10:20:25.763Z,43.48
2022-11-17T10:22:56.143Z,43.11
2022-11-17T10:25:38.636Z,42.49
2022-11-17T10:28:22.823Z,42.39
2022-11-17T10:30:54.563Z,42.20
2022-11-17T10:33:35.624Z,41.81
2022-11-17T10:36:06.228Z,41.90
2022-11-17T10:38:33.803Z,40.67
2022-11-17T10:41:03.445Z,40.44
2022-11-17T10:43:36.920Z,40.62
2022-11-17T10:46:07.593Z,41.18
2022-11-17T10:48:37.528Z,40.49
2022-11-17T10:51:07.322Z,39.68
2022-11-17T10:53:44.448Z,40.19
2022-11-17T10:56:16.004Z,40.11
2022-11-17T10:59:11.882Z,39.85
2022-11-17T11:01:42.060Z,41.28
2022-11-17T11:04:28.263Z,41.72
2022-11-17T11:07:09.131Z,41.25
2022-11-17T11:09:48.676Z,41.25
2022-11-17T11:12:24.573Z,39.21
2022-11-17T11:14:59.063Z,40.11
2022-11-17T11:17:29.791Z,41.37
2022-11-17T11:19:57.263Z,42.28
2022-11-17T11:22:35.064Z,43.05
2022-11-17T11:25:18.010Z,43.52
2022-11-17T11:28:00.882Z,42.89
2022-11-17T11:30:37.647Z,43.68
2022-11-17T11:33:23.203Z,44.01
2022-11-17T11:36:08.403Z,43.93
2022-11-17T11:38:50.202Z,44.03
2022-11-17T11:41:35.828Z,44.21
2022-11-17T11:44:36.922Z,43.40
2022-11-17T11:47:23.684Z,44.23
2022-11-17T11:49:57.603Z,45.04
2022-11-17T11:52:31.906Z,45.29
2022-11-17T11:55:04.147Z,43.57
2022-11-17T11:57:37.784Z,43.74
2022-11-17T12:00:08.002Z,44.33
2022-11-17T12:02:47.783Z,42.80
2022-11-17T12:05:26.584Z,42.36
2022-11-17T12:08:10.582Z,43.01
2022-11-17T12:10:48.243Z,44.95
2022-11-17T12:13:19.562Z,43.68
2022-11-17T12:15:47.287Z,43.23
2022-11-17T12:18:31.984Z,42.65
2022-11-17T12:21:05.542Z,41.83
2022-11-17T12:23:57.466Z,42.15
2022-11-17T12:26:30.290Z,43.80
2022-11-17T12:29:29.949Z,42.54
2022-11-17T12:31:58.644Z,43.06
2022-11-17T12:34:30.203Z,43.00
2022-11-17T12:37:21.203Z,43.99
2022-11-17T12:40:07.083Z,43.15
2022-11-17T12:42:36.065Z,45.39
2022-11-17T12:45:08.845Z,46.59
2022-11-17T12:47:38.896Z,44.11
2022-11-17T12:50:40.508Z,44.85
2022-11-17T12:53:27.055Z,42.21
2022-11-17T12:56:26.712Z,44.36
2022-11-17T12:59:11.826Z,42.39
2022-11-17T13:01:51.400Z,44.89
2022-11-17T13:04:24.242Z,43.08
2022-11-17T13:07:04.501Z,43.69
2022-11-17T13:09:34.327Z,44.00
2022-11-17T13:12:04.564Z,45.22
2022-11-17T13:14:32.462Z,43.78
2022-11-17T13:17:01.403Z,43.55
2022-11-17T13:19:34.007Z,43.92
2022-11-17T13:22:05.868Z,41.89
2022-11-17T13:24:35.211Z,42.81
2022-11-17T13:27:04.486Z,42.30
2022-11-17T13:29:31.686Z,42.65
2022-11-17T13:32:25.125Z,42.65
2022-11-17T13:34:55.204Z,42.42
2022-11-17T13:37:26.102Z,42.28
2022-11-17T13:40:01.432Z,42.89
2022-11-17T13:42:32.290Z,44.97
2022-11-17T13:45:02.926Z,44.88
2022-11-17T13:47:45.687Z,41.89
2022-11-17T13:50:33.343Z,40.96
2022-11-17T13:53:19.421Z,41.93
2022-11-17T13:55:47.366Z,42.33
2022-11-17T13:58:27.629Z,42.49
2022-11-17T14:00:57.694Z,42.33
2022-11-17T14:03:34.262Z,42.40
2022-11-17T14:06:01.729Z,41.23
2022-11-17T14:08:33.184Z,42.46
2022-11-17T14:11:21.613Z,41.05
2022-11-17T14:13:51.542Z,40.68
2022-11-17T14:16:24.647Z,40.02
2022-11-17T14:19:01.461Z,38.88
2022-11-17T14:21:30.005Z,37.89
2022-11-17T14:24:10.403Z,37.02
2022-11-17T14:26:43.608Z,36.70
2022-11-17T14:29:12.382Z,37.78
2022-11-17T14:31:39.622Z,35.22
2022-11-17T14:34:06.804Z,36.46
2022-11-17T14:36:35.465Z,36.34
2022-11-17T14:39:12.186Z,35.24
2022-11-17T14:41:39.706Z,34.96
2022-11-17T14:44:06.944Z,36.64
2022-11-17T14:46:35.144Z,36.18
2022-11-17T14:49:02.301Z,35.87
2022-11-17T14:51:29.503Z,36.08
2022-11-17T14:53:56.643Z,36.78
2022-11-17T14:56:26.082Z,36.58
2022-11-17T14:58:56.184Z,37.83
2022-11-17T15:01:26.644Z,37.60
2022-11-17T15:03:54.213Z,37.70
2022-11-17T15:06:22.601Z,36.27
2022-11-17T15:08:54.562Z,35.63
2022-11-17T15:11:21.949Z,36.59
2022-11-17T15:13:50.562Z,36.68
2022-11-17T15:16:18.221Z,35.11
2022-11-17T15:18:46.907Z,35.10
2022-11-17T15:21:16.182Z,35.66
2022-11-17T15:23:45.528Z,35.07
2022-11-17T15:26:16.165Z,34.36
2022-11-17T15:28:43.401Z,34.91
2022-11-17T15:31:14.648Z,34.46
2022-11-17T15:33:44.402Z,35.07
2022-11-17T15:36:13.707Z,35.05
2022-11-17T15:38:41.843Z,35.76
2022-11-17T15:41:12.062Z,36.17
2022-11-17T15:43:40.912Z,38.61
2022-11-17T15:46:10.422Z,40.04
2022-11-17T15:48:40.802Z,38.46
2022-11-17T15:51:10.442Z,38.62
2022-11-17T15:53:39.302Z,37.80
2022-11-17T15:56:09.645Z,37.14
2022-11-17T15:58:37.202Z,37.48
2022-11-17T16:01:09.399Z,36.19
2022-11-17T16:03:38.602Z,36.24
2022-11-17T16:06:06.904Z,36.46
2022-11-17T16:08:34.264Z,37.13
2022-11-17T16:11:02.407Z,36.00
2022-11-17T16:13:29.725Z,34.96
2022-11-17T16:15:57.644Z,36.41
2022-11-17T16:18:25.683Z,35.51
2022-11-17T16:20:56.977Z,34.73
2022-11-17T16:23:28.776Z,36.04
2022-11-17T16:25:59.062Z,36.08
2022-11-17T16:28:26.623Z,35.31
2022-11-17T16:30:54.439Z,35.07
2022-11-17T16:33:21.805Z,34.91
2022-11-17T16:35:49.594Z,35.45
2022-11-17T16:38:21.004Z,36.40
2022-11-17T16:40:50.002Z,36.22
2022-11-17T16:43:19.023Z,36.68
2022-11-17T16:45:46.842Z,37.59
2022-11-17T16:48:16.484Z,37.74
2022-11-17T16:50:43.662Z,38.08
2022-11-17T16:53:11.303Z,38.63
2022-11-17T16:55:40.622Z,37.46
2022-11-17T16:58:10.742Z,36.99
2022-11-17T17:00:40.043Z,36.70
2022-11-17T17:03:07.428Z,37.22
2022-11-17T17:05:37.936Z,36.34
2022-11-17T17:08:05.622Z,36.29
2022-11-17T17:10:35.043Z,35.67
2022-11-17T17:13:06.802Z,35.24
2022-11-17T17:15:34.001Z,36.33
2022-11-17T17:18:01.112Z,35.80
2022-11-17T17:20:28.203Z,35.64
2022-11-17T17:22:59.021Z,35.57
2022-11-17T17:25:30.021Z,35.82
2022-11-17T17:27:57.082Z,36.36
2022-11-17T17:30:25.584Z,35.71
2022-11-17T17:32:53.083Z,35.81
2022-11-17T17:35:20.324Z,35.83
2022-11-17T17:37:47.762Z,36.66
2022-11-17T17:40:15.044Z,36.87
2022-11-17T17:42:42.202Z,36.44
2022-11-17T17:45:09.884Z,37.36
2022-11-17T17:47:38.878Z,38.21
2022-11-17T17:50:07.842Z,38.85
2022-11-17T17:52:34.964Z,40.03
2022-11-17T17:55:03.030Z,39.42
2022-11-17T17:57:33.933Z,39.76
2022-11-17T18:00:01.265Z,38.24
2022-11-17T18:02:28.506Z,38.04
2022-11-17T18:04:57.104Z,38.44
2022-11-17T18:07:24.187Z,38.82
2022-11-17T18:09:51.676Z,40.16
2022-11-17T18:12:18.812Z,39.92
2022-11-17T18:14:47.771Z,41.20
2022-11-17T18:17:14.956Z,43.18
2022-11-17T18:19:42.372Z,47.36
2022-11-17T18:22:10.939Z,46.98
2022-11-17T18:24:38.030Z,54.29
2022-11-17T18:27:06.753Z,50.34
2022-11-17T18:29:34.539Z,47.49
2022-11-17T18:32:01.672Z,46.12
2022-11-17T18:34:28.971Z,44.99
2022-11-17T18:36:56.272Z,44.12
2022-11-17T18:39:25.037Z,43.50
2022-11-17T18:41:52.197Z,42.65
2022-11-17T18:44:19.755Z,43.53
2022-11-17T18:46:47.073Z,45.10
2022-11-17T18:49:14.662Z,46.03
2022-11-17T18:51:42.260Z,46.39
2022-11-17T18:54:11.843Z,46.48
2022-11-17T18:56:40.711Z,47.31
2022-11-17T18:59:08.734Z,47.27
2022-11-17T19:01:35.984Z,49.01
2022-11-17T19:04:03.970Z,49.04
2022-11-17T19:06:31.931Z,49.27
2022-11-17T19:08:59.814Z,50.46
2022-11-17T19:11:28.912Z,50.50
2022-11-17T19:13:59.491Z,49.82
2022-11-17T19:16:27.113Z,50.18
2022-11-17T19:18:56.388Z,50.49
2022-11-17T19:21:25.990Z,50.04
2022-11-17T19:23:55.191Z,49.74
2022-11-17T19:26:24.408Z,49.30
2022-11-17T19:28:56.310Z,50.00
2022-11-17T19:31:26.490Z,49.05
2022-11-17T19:33:54.608Z,48.74
2022-11-17T19:36:23.670Z,48.42
2022-11-17T19:38:52.868Z,49.22
2022-11-17T19:41:22.028Z,49.01
2022-11-17T19:43:52.751Z,48.62
2022-11-17T19:46:20.656Z,47.53
2022-11-17T19:48:49.632Z,47.26
2022-11-17T19:51:19.569Z,47.39
2022-11-17T19:53:47.288Z,47.87
2022-11-17T19:56:14.871Z,47.17
2022-11-17T19:58:42.376Z,46.43
2022-11-17T20:01:12.248Z,46.70
2022-11-17T20:03:41.148Z,46.98
2022-11-17T20:06:12.253Z,46.20
2022-11-17T20:08:40.302Z,45.79
2022-11-17T20:11:09.709Z,46.06
2022-11-17T20:13:37.788Z,46.97
2022-11-17T20:16:12.029Z,46.71
2022-11-17T20:18:39.971Z,46.15
2022-11-17T20:21:07.608Z,46.94
2022-11-17T20:23:38.209Z,46.68
2022-11-17T20:26:06.649Z,45.62
2022-11-17T20:28:34.405Z,44.59
2022-11-17T20:31:06.488Z,44.97
2022-11-17T20:33:33.628Z,45.78
2022-11-17T20:36:00.931Z,46.28
2022-11-17T20:38:28.110Z,45.93
2022-11-17T20:40:59.692Z,46.04
2022-11-17T20:43:27.950Z,57.29
2022-11-17T20:45:56.989Z,49.88
2022-11-17T20:48:25.149Z,46.44
2022-11-17T20:50:56.089Z,44.46
2022-11-17T20:53:24.008Z,42.79
2022-11-17T20:55:51.131Z,40.08
2022-11-17T20:58:19.677Z,41.42
2022-11-17T21:00:46.790Z,42.43
2022-11-17T21:03:14.449Z,43.65
2022-11-17T21:05:41.568Z,44.14
2022-11-17T21:08:08.719Z,45.21
2022-11-17T21:10:37.238Z,46.25
2022-11-17T21:13:04.930Z,47.02
2022-11-17T21:15:33.442Z,46.89
2022-11-17T21:18:00.459Z,47.58
2022-11-17T21:20:27.940Z,47.66
2022-11-17T21:22:55.265Z,47.91
2022-11-17T21:25:22.419Z,48.59
2022-11-17T21:27:49.601Z,48.54
2022-11-17T21:30:16.933Z,49.15
2022-11-17T21:32:45.471Z,49.28
2022-11-17T21:35:12.619Z,48.85
2022-11-17T21:37:39.717Z,49.38
2022-11-17T21:40:08.477Z,49.41
2022-11-17T21:42:35.623Z,50.20
2022-11-17T21:45:02.756Z,50.33
2022-11-17T21:47:30.997Z,50.25
2022-11-17T21:49:59.616Z,50.58
2022-11-17T21:52:26.716Z,50.16
2022-11-17T21:54:53.758Z,50.66
2022-11-17T21:57:20.918Z,50.35
2022-11-17T21:59:48.018Z,50.39
2022-11-17T22:02:15.158Z,50.54
2022-11-17T22:04:42.387Z,50.20
2022-11-17T22:07:10.946Z,50.15
2022-11-17T22:09:38.037Z,50.53
2022-11-17T22:12:05.323Z,50.47
2022-11-17T22:14:32.456Z,50.14
2022-11-17T22:16:59.656Z,50.44
2022-11-17T22:19:28.216Z,50.31
2022-11-17T22:21:55.901Z,50.63
2022-11-17T22:24:24.356Z,50.18
2022-11-17T22:26:51.398Z,50.71
2022-11-17T22:29:20.671Z,50.16
2022-11-17T22:31:49.200Z,50.82
2022-11-17T22:34:17.138Z,51.37
2022-11-17T22:36:44.200Z,51.24
2022-11-17T22:39:11.613Z,51.45
2022-11-17T22:41:40.538Z,50.91
2022-11-17T22:44:07.658Z,51.24
2022-11-17T22:46:35.022Z,51.47
2022-11-17T22:49:02.617Z,51.21
2022-11-17T22:51:29.796Z,51.42
2022-11-17T22:53:56.816Z,50.68
2022-11-17T22:56:23.998Z,50.34
2022-11-17T22:58:56.869Z,50.42
2022-11-17T23:01:27.125Z,49.91
2022-11-17T23:03:54.310Z,50.23
2022-11-17T23:06:21.457Z,49.18
2022-11-17T23:08:48.697Z,49.02
2022-11-17T23:11:36.137Z,49.24
2022-11-17T23:14:05.345Z,49.20
2022-11-17T23:16:32.456Z,49.28
2022-11-17T23:18:59.578Z,49.00
2022-11-17T23:21:26.859Z,48.83
2022-11-17T23:23:54.037Z,49.61
2022-11-17T23:26:21.801Z,50.01
2022-11-17T23:28:49.856Z,49.74
2022-11-17T23:31:18.577Z,50.08
2022-11-17T23:33:48.006Z,50.29
2022-11-17T23:36:17.399Z,50.50
2022-11-17T23:38:45.279Z,50.40
2022-11-17T23:41:14.621Z,50.38
2022-11-17T23:43:42.598Z,49.75
2022-11-17T23:46:12.361Z,50.25
2022-11-17T23:48:41.036Z,49.66
2022-11-17T23:51:10.039Z,49.48
2022-11-17T23:53:37.537Z,49.95
2022-11-17T23:56:06.457Z,49.11
2022-11-17T23:58:33.917Z,49.74
